Time;durP1;ratioP1;P1;durP2;ratioP2;P2;SDS_P1;SDS_P2;PMS_P1;PMS_P2;Temp;Humidity;BMP_temperature;BMP_pressure;BME280_temperature;BME280_humidity;BME280_pressure;Samples;Min_cycle;Max_cycle;Signal;HPM_P1;HPM_P2
2022/09/14 00:01:10;;;;;;;5.43;2.20;;;14.90;99.90;;;;;;4995309;28;20678;-67
2022/09/14 00:03:36;;;;;;;5.65;1.90;;;14.80;99.90;;;;;;4995689;28;20364;-67
2022/09/14 00:06:07;;;;;;;5.67;2.10;;;14.90;99.90;;;;;;4996028;28;20125;-67
2022/09/14 00:08:33;;;;;;;7.27;2.30;;;14.90;99.90;;;;;;4996412;28;20046;-67
2022/09/14 00:11:12;;;;;;;7.87;2.50;;;14.90;99.90;;;;;;4993835;28;20797;-68
2022/09/14 00:13:40;;;;;;;6.93;2.63;;;14.90;99.90;;;;;;4994786;28;20285;-67
2022/09/14 00:16:13;;;;;;;10.10;2.87;;;14.90;99.90;;;;;;4993888;28;20292;-67
2022/09/14 00:18:39;;;;;;;6.33;2.37;;;14.90;99.90;;;;;;4995286;28;20304;-67
2022/09/14 00:21:07;;;;;;;7.03;2.73;;;14.90;99.90;;;;;;4995996;28;20586;-67
2022/09/14 00:23:37;;;;;;;6.40;3.07;;;14.90;99.90;;;;;;4994898;28;20483;-67
2022/09/14 00:26:05;;;;;;;8.73;3.57;;;14.90;99.90;;;;;;4995428;28;20603;-67
2022/09/14 00:28:39;;;;;;;6.10;2.93;;;14.90;99.90;;;;;;4995637;28;20314;-67
2022/09/14 00:31:06;;;;;;;5.65;3.35;;;14.90;99.90;;;;;;4995717;28;20294;-67
2022/09/14 00:33:33;;;;;;;11.37;3.07;;;14.80;99.90;;;;;;4994508;28;20436;-67
2022/09/14 00:36:07;;;;;;;8.17;3.80;;;14.80;99.90;;;;;;4994984;28;20284;-67
2022/09/14 00:38:33;;;;;;;7.05;3.20;;;14.80;99.90;;;;;;4994615;28;20774;-67
2022/09/14 00:41:00;;;;;;;7.33;3.50;;;14.80;99.90;;;;;;4994768;28;20042;-67
2022/09/14 00:43:26;;;;;;;6.37;3.20;;;14.80;99.90;;;;;;4995541;28;20347;-67
2022/09/14 00:45:52;;;;;;;7.40;3.20;;;14.80;99.90;;;;;;4994799;28;20758;-67
2022/09/14 00:48:19;;;;;;;8.87;3.30;;;14.80;99.90;;;;;;4994742;28;20046;-67
2022/09/14 00:50:45;;;;;;;7.37;3.37;;;14.80;99.90;;;;;;4995117;28;20289;-67
2022/09/14 00:53:11;;;;;;;9.53;3.50;;;14.80;99.90;;;;;;4995145;28;20296;-67
2022/09/14 00:55:36;;;;;;;7.90;2.90;;;14.90;99.90;;;;;;4994688;28;20273;-67
2022/09/14 00:58:02;;;;;;;7.93;2.77;;;14.90;99.90;;;;;;4995584;28;20439;-67
2022/09/14 01:00:29;;;;;;;7.60;3.43;;;14.90;99.90;;;;;;4994789;28;20041;-67
2022/09/14 01:02:55;;;;;;;5.33;3.20;;;14.90;99.90;;;;;;4994441;28;20046;-67
2022/09/14 01:05:38;;;;;;;7.87;2.90;;;14.90;99.90;;;;;;4994499;28;20069;-67
2022/09/14 01:08:13;;;;;;;7.97;3.47;;;14.90;99.90;;;;;;4994451;28;20270;-67
2022/09/14 01:10:44;;;;;;;6.18;3.10;;;14.90;99.90;;;;;;4994623;28;20294;-67
2022/09/14 01:13:16;;;;;;;6.63;3.13;;;14.90;99.90;;;;;;4994323;28;20541;-68
2022/09/14 01:16:01;;;;;;;8.93;3.20;;;14.90;99.90;;;;;;4994384;28;20289;-67
2022/09/14 01:18:34;;;;;;;;;;;14.90;99.90;;;;;;4994715;28;20277;-67
2022/09/14 01:21:09;;;;;;;6.77;3.33;;;14.90;99.90;;;;;;4994266;28;20385;-67
2022/09/14 01:24:13;;;;;;;5.05;2.95;;;14.90;99.90;;;;;;4994176;28;20292;-67
2022/09/14 01:26:58;;;;;;;7.50;3.67;;;14.90;99.90;;;;;;4994490;28;20069;-67
2022/09/14 01:29:33;;;;;;;5.60;2.92;;;15.00;99.90;;;;;;4993619;28;20285;-67
2022/09/14 01:32:11;;;;;;;8.40;3.13;;;14.90;99.90;;;;;;4994510;28;20053;-67
2022/09/14 01:35:06;;;;;;;7.83;3.50;;;15.00;99.90;;;;;;4994923;28;20320;-67
2022/09/14 01:37:43;;;;;;;5.38;2.95;;;14.90;99.90;;;;;;4994111;28;20351;-67
2022/09/14 01:40:16;;;;;;;6.27;3.50;;;15.00;99.90;;;;;;4994306;28;20438;-68
2022/09/14 01:42:47;;;;;;;8.80;3.70;;;14.90;99.90;;;;;;4994828;28;20285;-67
2022/09/14 01:45:16;;;;;;;5.70;3.30;;;14.90;99.90;;;;;;4994015;28;20309;-67
2022/09/14 01:47:56;;;;;;;8.77;3.67;;;14.90;99.90;;;;;;4993902;28;20277;-67
2022/09/14 01:50:37;;;;;;;7.10;3.83;;;14.90;99.90;;;;;;4992831;28;20289;-67
2022/09/14 01:53:17;;;;;;;13.97;3.90;;;14.90;99.90;;;;;;4992855;28;20274;-67
2022/09/14 01:55:54;;;;;;;10.93;3.83;;;14.90;99.90;;;;;;4993758;28;20290;-67
2022/09/14 01:58:34;;;;;;;8.77;3.37;;;14.90;99.90;;;;;;4993730;28;20341;-67
2022/09/14 02:01:03;;;;;;;7.63;3.77;;;14.80;99.90;;;;;;4993701;28;20274;-67
2022/09/14 02:03:36;;;;;;;6.87;3.70;;;14.80;99.90;;;;;;4993368;28;20618;-67
2022/09/14 02:06:20;;;;;;;8.40;3.77;;;14.90;99.90;;;;;;4993932;28;20387;-67
2022/09/14 02:08:46;;;;;;;8.47;3.60;;;14.80;99.90;;;;;;4993635;28;20296;-67
2022/09/14 02:11:11;;;;;;;7.50;3.37;;;14.80;99.90;;;;;;4994193;28;20301;-67
2022/09/14 02:13:37;;;;;;;5.60;2.97;;;14.80;99.90;;;;;;4994374;28;20053;-67
2022/09/14 02:16:03;;;;;;;6.57;3.43;;;14.90;99.90;;;;;;4993552;28;20526;-67
2022/09/14 02:18:30;;;;;;;8.13;3.50;;;14.90;99.90;;;;;;4993627;28;20054;-67
2022/09/14 02:21:25;;;;;;;7.77;3.50;;;14.80;99.90;;;;;;4993674;28;20042;-67
2022/09/14 02:23:51;;;;;;;7.73;3.33;;;14.90;99.90;;;;;;4992441;28;20289;-67
2022/09/14 02:26:18;;;;;;;8.37;3.70;;;14.90;99.90;;;;;;4993957;28;20294;-67
2022/09/14 02:28:44;;;;;;;8.33;4.23;;;14.90;99.90;;;;;;4993531;28;20344;-67
2022/09/14 02:31:20;;;;;;;9.60;3.87;;;15.00;99.90;;;;;;4993983;28;20693;-67
2022/09/14 02:34:19;;;;;;;7.67;3.83;;;15.00;99.90;;;;;;4993562;28;20433;-67
2022/09/14 02:37:02;;;;;;;7.77;3.77;;;15.00;99.90;;;;;;4994308;28;20292;-67
2022/09/14 02:39:48;;;;;;;10.33;4.07;;;15.00;99.90;;;;;;4995455;28;20764;-67
2022/09/14 02:42:17;;;;;;;6.83;3.50;;;15.00;99.90;;;;;;4996423;28;20281;-67
2022/09/14 02:44:58;;;;;;;9.87;3.73;;;15.00;99.90;;;;;;4997053;28;20347;-67
2022/09/14 02:47:55;;;;;;;7.10;3.17;;;15.00;99.90;;;;;;4997823;28;20282;-67
2022/09/14 02:50:47;;;;;;;8.10;3.43;;;15.00;99.90;;;;;;4997079;28;20285;-67
2022/09/14 02:53:17;;;;;;;7.63;3.80;;;15.00;99.90;;;;;;4997708;28;20277;-67
2022/09/14 02:56:10;;;;;;;8.17;3.53;;;15.10;99.90;;;;;;4996877;28;20285;-67
2022/09/14 02:58:42;;;;;;;7.60;4.03;;;15.10;99.90;;;;;;4994486;28;20646;-67
2022/09/14 03:01:11;;;;;;;9.77;4.10;;;15.10;99.90;;;;;;4996780;28;20274;-67
2022/09/14 03:03:37;;;;;;;7.90;3.40;;;15.10;99.90;;;;;;4996731;28;20356;-67
2022/09/14 03:06:03;;;;;;;9.83;3.40;;;15.00;99.90;;;;;;4996709;28;20841;-67
2022/09/14 03:08:29;;;;;;;6.57;3.60;;;15.00;99.90;;;;;;4997246;28;20054;-67
2022/09/14 03:10:55;;;;;;;8.23;3.70;;;15.00;99.90;;;;;;4996461;28;20294;-67
2022/09/14 03:13:21;;;;;;;9.97;4.03;;;15.00;99.90;;;;;;4997298;28;20285;-67
2022/09/14 03:15:47;;;;;;;7.83;3.60;;;15.00;99.90;;;;;;4997205;28;20281;-67
2022/09/14 03:18:13;;;;;;;7.33;3.47;;;15.00;99.90;;;;;;4996464;28;20057;-67
2022/09/14 03:20:39;;;;;;;9.63;3.70;;;15.00;99.90;;;;;;4996431;28;20117;-67
2022/09/14 03:23:07;;;;;;;7.83;4.03;;;15.00;99.90;;;;;;4996776;28;20564;-67
2022/09/14 03:25:51;;;;;;;7.87;4.10;;;15.00;99.90;;;;;;4996200;28;20384;-67
2022/09/14 03:28:17;;;;;;;6.03;3.40;;;15.00;99.90;;;;;;4996242;28;20345;-67
2022/09/14 03:30:42;;;;;;;7.73;3.40;;;15.00;99.90;;;;;;4996060;28;20304;-67
2022/09/14 03:33:08;;;;;;;7.93;4.20;;;15.00;99.90;;;;;;4996446;28;20083;-67
2022/09/14 03:35:34;;;;;;;9.97;4.00;;;15.00;99.90;;;;;;4996124;28;20046;-67
2022/09/14 03:38:01;;;;;;;9.90;3.80;;;15.00;99.90;;;;;;4996872;28;20049;-67
2022/09/14 03:40:27;;;;;;;7.03;3.90;;;15.00;99.90;;;;;;4996067;28;20105;-67
2022/09/14 03:42:53;;;;;;;5.90;3.40;;;15.00;99.90;;;;;;4994836;28;20509;-67
2022/09/14 03:45:20;;;;;;;8.90;4.43;;;15.00;99.90;;;;;;4994999;28;20057;-67
2022/09/14 03:47:46;;;;;;;7.63;3.77;;;15.00;99.90;;;;;;4994878;28;20486;-67
2022/09/14 03:50:12;;;;;;;8.77;3.90;;;15.00;99.90;;;;;;4995516;28;20282;-67
2022/09/14 03:52:39;;;;;;;10.33;4.00;;;15.00;99.90;;;;;;4995374;28;20086;-67
2022/09/14 03:55:06;;;;;;;10.70;4.17;;;15.10;99.90;;;;;;4996342;28;20368;-67
2022/09/14 03:57:33;;;;;;;11.53;4.20;;;15.10;99.90;;;;;;4995679;28;20282;-67
2022/09/14 03:59:58;;;;;;;8.57;4.03;;;15.10;99.90;;;;;;4995684;28;20281;-67
2022/09/14 04:02:24;;;;;;;8.23;3.67;;;15.10;99.90;;;;;;4996172;28;20274;-67
2022/09/14 04:04:50;;;;;;;6.67;3.50;;;15.10;99.90;;;;;;4995302;28;20116;-67
2022/09/14 04:07:16;;;;;;;10.60;4.07;;;15.10;99.90;;;;;;4996108;28;20394;-67
2022/09/14 04:09:42;;;;;;;7.70;4.03;;;15.10;99.90;;;;;;4995760;28;20054;-67
2022/09/14 04:12:08;;;;;;;8.13;3.60;;;15.10;99.90;;;;;;4995352;28;20360;-67
2022/09/14 04:14:34;;;;;;;9.80;4.33;;;15.10;99.90;;;;;;4995372;28;20129;-67
2022/09/14 04:17:00;;;;;;;8.80;3.77;;;15.10;99.90;;;;;;4995406;28;20332;-67
2022/09/14 04:19:26;;;;;;;9.70;3.83;;;15.10;99.90;;;;;;4994677;28;20043;-67
2022/09/14 04:21:51;;;;;;;7.37;3.77;;;15.10;99.90;;;;;;4995761;28;20474;-67
2022/09/14 04:24:17;;;;;;;11.07;4.40;;;15.10;99.90;;;;;;4995735;28;20281;-67
2022/09/14 04:26:44;;;;;;;8.93;3.47;;;15.10;99.90;;;;;;4994957;28;20062;-67
2022/09/14 04:29:11;;;;;;;8.03;3.87;;;15.10;99.90;;;;;;4995923;28;20356;-67
2022/09/14 04:31:37;;;;;;;8.60;4.03;;;15.10;99.90;;;;;;4994961;28;20047;-67
2022/09/14 04:34:04;;;;;;;8.13;3.53;;;15.20;99.90;;;;;;4994073;28;20380;-67
2022/09/14 04:36:30;;;;;;;7.97;3.60;;;15.20;99.90;;;;;;4995005;28;20038;-68
2022/09/14 04:39:00;;;;;;;9.47;3.60;;;15.20;99.90;;;;;;4995224;28;20284;-67
2022/09/14 04:41:27;;;;;;;8.27;3.80;;;15.20;99.90;;;;;;4994969;28;20042;-67
2022/09/14 04:43:54;;;;;;;11.87;4.03;;;15.20;99.90;;;;;;4995383;28;20049;-67
2022/09/14 04:46:25;;;;;;;6.90;3.70;;;15.20;99.90;;;;;;4995343;28;20368;-67
2022/09/14 04:48:51;;;;;;;9.93;4.20;;;15.20;99.90;;;;;;4994809;28;20100;-67
2022/09/14 04:51:19;;;;;;;7.43;3.87;;;15.20;99.90;;;;;;4994669;28;20298;-67
2022/09/14 04:53:48;;;;;;;8.87;4.07;;;15.20;99.90;;;;;;4994686;28;20097;-67
2022/09/14 04:56:15;;;;;;;7.50;3.90;;;15.20;99.90;;;;;;4995041;28;20815;-67
2022/09/14 04:58:46;;;;;;;8.23;4.17;;;15.20;99.90;;;;;;4994587;28;20292;-67
2022/09/14 05:01:15;;;;;;;8.97;3.73;;;15.20;99.90;;;;;;4995432;28;20054;-67
2022/09/14 05:03:42;;;;;;;8.30;3.90;;;15.20;99.90;;;;;;4994426;28;20277;-67
2022/09/14 05:06:09;;;;;;;9.13;4.23;;;15.20;99.90;;;;;;4995146;28;20330;-67
2022/09/14 05:08:37;;;;;;;10.77;4.40;;;15.20;99.90;;;;;;4994432;28;20289;-67
2022/09/14 05:11:03;;;;;;;7.27;3.77;;;15.20;99.90;;;;;;4994426;28;20388;-67
2022/09/14 05:13:29;;;;;;;9.30;4.13;;;15.30;99.90;;;;;;4994351;28;20281;-67
2022/09/14 05:16:22;;;;;;;9.27;4.37;;;15.20;99.90;;;;;;4994346;28;20286;-67
2022/09/14 05:18:49;;;;;;;8.23;4.20;;;15.20;99.90;;;;;;4993873;28;20081;-67
2022/09/14 05:21:17;;;;;;;7.53;4.00;;;15.20;99.90;;;;;;4994293;28;20368;-67
2022/09/14 05:23:44;;;;;;;9.00;4.33;;;15.20;99.90;;;;;;4994761;28;20292;-67
2022/09/14 05:26:11;;;;;;;7.43;4.30;;;15.30;99.90;;;;;;4994245;28;20498;-67
2022/09/14 05:28:36;;;;;;;8.70;4.83;;;15.30;99.90;;;;;;4994910;28;20286;-68
2022/09/14 05:31:07;;;;;;;9.03;4.57;;;15.30;99.90;;;;;;4994064;28;20046;-67
2022/09/14 05:33:33;;;;;;;9.60;4.67;;;15.30;99.90;;;;;;4992840;28;20089;-67
2022/09/14 05:36:04;;;;;;;7.70;4.23;;;15.30;99.90;;;;;;4994080;28;20092;-67
2022/09/14 05:38:31;;;;;;;8.77;4.37;;;15.30;99.90;;;;;;4994625;28;20356;-67
2022/09/14 05:40:57;;;;;;;11.70;4.40;;;15.30;99.90;;;;;;4993992;28;20046;-67
2022/09/14 05:43:23;;;;;;;7.00;4.33;;;15.30;99.90;;;;;;4994222;28;20053;-67
2022/09/14 05:45:49;;;;;;;8.80;4.20;;;15.30;99.90;;;;;;4994747;28;20426;-68
2022/09/14 05:48:16;;;;;;;10.50;4.50;;;15.30;99.90;;;;;;4993946;28;20050;-67
2022/09/14 05:50:42;;;;;;;9.53;4.40;;;15.30;99.90;;;;;;4993791;28;20285;-67
2022/09/14 05:53:07;;;;;;;9.50;4.40;;;15.30;99.90;;;;;;4994144;28;20352;-67
2022/09/14 05:55:33;;;;;;;7.50;4.10;;;15.30;99.90;;;;;;4993922;28;20505;-67
2022/09/14 05:57:59;;;;;;;7.63;3.97;;;15.40;99.90;;;;;;4993589;28;20051;-67
2022/09/14 06:00:26;;;;;;;10.40;4.40;;;15.40;99.90;;;;;;4993617;28;20050;-67
2022/09/14 06:02:53;;;;;;;10.10;4.43;;;15.40;99.90;;;;;;4993807;28;20061;-67
2022/09/14 06:05:20;;;;;;;9.03;3.90;;;15.50;99.90;;;;;;4994270;28;20062;-67
2022/09/14 06:07:51;;;;;;;7.77;4.00;;;15.50;99.90;;;;;;4993427;28;20411;-67
2022/09/14 06:10:17;;;;;;;8.67;4.20;;;15.50;99.90;;;;;;4993852;28;20273;-67
2022/09/14 06:12:43;;;;;;;9.73;4.23;;;15.60;99.90;;;;;;4993956;28;20042;-68
2022/09/14 06:15:09;;;;;;;7.87;3.93;;;15.50;99.90;;;;;;4996379;28;20046;-67
2022/09/14 06:17:35;;;;;;;10.20;4.80;;;15.60;99.90;;;;;;4998183;28;20050;-67
2022/09/14 06:20:03;;;;;;;9.67;4.40;;;15.60;99.90;;;;;;4997571;28;20133;-67
2022/09/14 06:22:30;;;;;;;8.03;3.83;;;15.60;99.90;;;;;;4997591;28;20054;-67
2022/09/14 06:24:56;;;;;;;8.87;3.73;;;15.70;99.90;;;;;;4997392;28;20750;-68
2022/09/14 06:27:22;;;;;;;7.87;4.03;;;15.70;99.90;;;;;;4996569;28;20290;-67
2022/09/14 06:29:51;;;;;;;8.03;3.90;;;15.70;99.90;;;;;;4996463;28;20050;-67
2022/09/14 06:32:17;;;;;;;8.40;4.03;;;15.80;99.90;;;;;;4996158;28;20097;-67
2022/09/14 06:34:43;;;;;;;13.80;4.30;;;15.90;99.90;;;;;;4997353;28;20057;-67
2022/09/14 06:37:09;;;;;;;8.10;4.13;;;15.90;99.90;;;;;;4997816;28;20046;-67
2022/09/14 06:39:35;;;;;;;6.67;3.40;;;16.00;99.90;;;;;;4998019;28;20054;-68
2022/09/14 06:42:01;;;;;;;9.37;3.60;;;16.00;99.90;;;;;;4997201;28;20085;-67
2022/09/14 06:44:27;;;;;;;7.33;3.30;;;16.10;99.90;;;;;;4997883;28;20082;-67
2022/09/14 06:46:52;;;;;;;11.97;3.27;;;16.10;99.90;;;;;;4997902;28;20525;-68
2022/09/14 06:49:21;;;;;;;7.37;3.70;;;16.10;99.90;;;;;;4997093;28;20050;-68
2022/09/14 06:51:49;;;;;;;5.03;2.77;;;16.20;99.90;;;;;;4996877;28;20046;-67
2022/09/14 06:54:16;;;;;;;9.27;3.10;;;16.30;99.90;;;;;;4997024;28;20414;-67
2022/09/14 06:56:43;;;;;;;6.90;3.60;;;16.30;99.90;;;;;;4996655;28;20498;-67
2022/09/14 06:59:11;;;;;;;9.83;3.30;;;16.30;99.90;;;;;;4997405;28;20049;-67
2022/09/14 07:01:37;;;;;;;9.50;2.60;;;16.30;99.90;;;;;;4997120;28;20046;-67
2022/09/14 07:04:04;;;;;;;7.27;2.57;;;16.40;99.90;;;;;;4996839;28;20072;-67
2022/09/14 07:06:39;;;;;;;5.93;2.40;;;16.50;99.90;;;;;;4997645;28;20050;-67
2022/09/14 07:09:05;;;;;;;8.20;2.40;;;16.70;99.90;;;;;;4996738;28;20495;-68
2022/09/14 07:11:31;;;;;;;8.97;2.63;;;16.90;99.90;;;;;;4995567;28;20045;-67
2022/09/14 07:14:01;;;;;;;5.63;2.40;;;17.00;99.90;;;;;;4997108;28;20046;-68
2022/09/14 07:16:28;;;;;;;8.83;2.30;;;17.00;99.90;;;;;;4996627;28;20058;-67
2022/09/14 07:18:55;;;;;;;5.17;2.20;;;17.00;99.90;;;;;;4996545;28;20077;-67
2022/09/14 07:21:22;;;;;;;6.47;2.47;;;17.00;99.90;;;;;;4996774;28;20065;-67
2022/09/14 07:23:48;;;;;;;9.97;2.63;;;17.00;99.90;;;;;;4996424;28;20050;-67
2022/09/14 07:26:22;;;;;;;6.43;2.23;;;17.00;99.90;;;;;;4994995;28;20055;-67
2022/09/14 07:28:51;;;;;;;7.85;2.47;;;17.00;99.90;;;;;;4996429;28;20042;-67
2022/09/14 07:31:20;;;;;;;8.73;2.60;;;17.10;99.90;;;;;;4994687;28;20518;-67
2022/09/14 07:33:46;;;;;;;8.37;2.13;;;17.30;99.90;;;;;;4996225;28;20129;-67
2022/09/14 07:36:12;;;;;;;8.87;2.37;;;17.50;99.90;;;;;;4996242;28;20061;-67
2022/09/14 07:38:38;;;;;;;6.00;1.97;;;17.70;99.90;;;;;;4996159;28;20096;-67
2022/09/14 07:41:05;;;;;;;5.57;1.77;;;17.80;99.90;;;;;;4995913;28;20386;-68
2022/09/14 07:43:31;;;;;;;6.63;1.70;;;17.90;99.90;;;;;;4995726;28;20053;-67
2022/09/14 07:45:56;;;;;;;6.17;2.50;;;17.90;99.90;;;;;;4995945;28;20046;-68
2022/09/14 07:48:22;;;;;;;7.37;2.10;;;18.00;99.90;;;;;;4995945;28;20100;-68
2022/09/14 07:51:02;;;;;;;6.90;2.10;;;18.00;99.90;;;;;;4994520;28;20467;-67
2022/09/14 07:53:29;;;;;;;6.43;1.77;;;18.10;99.90;;;;;;4995905;28;20057;-67
2022/09/14 07:55:58;;;;;;;6.60;1.73;;;18.10;99.90;;;;;;4996267;28;20050;-68
2022/09/14 07:58:24;;;;;;;10.70;1.90;;;18.10;99.90;;;;;;4994536;28;20051;-67
2022/09/14 08:00:50;;;;;;;6.27;2.00;;;18.10;99.90;;;;;;4995612;28;20038;-67
2022/09/14 08:03:15;;;;;;;7.33;1.80;;;18.10;99.90;;;;;;4995010;28;20042;-68
2022/09/14 08:05:41;;;;;;;4.00;1.50;;;18.10;99.90;;;;;;4995860;28;20043;-67
2022/09/14 08:08:07;;;;;;;10.33;2.10;;;18.00;99.90;;;;;;4995501;28;20093;-67
2022/09/14 08:10:34;;;;;;;10.67;2.10;;;18.00;99.90;;;;;;4995131;28;20125;-68
2022/09/14 08:13:00;;;;;;;9.23;2.10;;;18.00;99.90;;;;;;4995396;28;20053;-68
2022/09/14 08:15:27;;;;;;;9.00;2.30;;;18.20;99.90;;;;;;4996237;28;20043;-67
2022/09/14 08:17:52;;;;;;;5.10;1.83;;;18.20;99.90;;;;;;4995109;28;20570;-67
2022/09/14 08:20:18;;;;;;;6.70;2.20;;;18.30;99.90;;;;;;4995366;28;20141;-67
2022/09/14 08:22:44;;;;;;;6.17;2.00;;;18.40;99.90;;;;;;4996072;28;20042;-67
2022/09/14 08:25:11;;;;;;;7.23;1.70;;;18.40;99.90;;;;;;4995308;28;20460;-67
2022/09/14 08:27:37;;;;;;;5.63;1.67;;;18.50;99.90;;;;;;4995667;28;20050;-68
2022/09/14 08:30:04;;;;;;;4.97;1.43;;;18.50;99.90;;;;;;4978235;28;20400;-68
2022/09/14 08:32:30;;;;;;;5.93;2.07;;;18.60;99.90;;;;;;4993603;28;20042;-68
2022/09/14 08:34:55;;;;;;;10.13;2.00;;;18.70;99.90;;;;;;4995097;28;20042;-67
2022/09/14 08:37:21;;;;;;;8.67;1.50;;;18.70;99.90;;;;;;4994447;28;20065;-68
2022/09/14 08:39:47;;;;;;;5.67;1.47;;;18.70;99.90;;;;;;4995598;28;20050;-67
2022/09/14 08:42:18;;;;;;;7.97;1.40;;;18.80;99.90;;;;;;4995003;28;20042;-68
2022/09/14 08:44:57;;;;;;;5.30;1.53;;;18.90;99.90;;;;;;4994973;28;20042;-67
2022/09/14 08:47:37;;;;;;;9.43;1.50;;;19.00;99.90;;;;;;4995006;28;20097;-67
2022/09/14 08:50:13;;;;;;;7.77;1.73;;;19.10;99.90;;;;;;4993854;28;20549;-68
2022/09/14 08:52:47;;;;;;;8.73;1.50;;;19.20;99.90;;;;;;4993808;28;20490;-67
2022/09/14 08:55:34;;;;;;;5.22;1.27;;;19.20;99.90;;;;;;4993487;28;20376;-67
2022/09/14 08:58:02;;;;;;;7.37;1.87;;;19.20;99.90;;;;;;4994326;28;20399;-68
2022/09/14 09:00:36;;;;;;;5.80;1.77;;;19.10;99.90;;;;;;4994670;28;20093;-68
2022/09/14 09:03:30;;;;;;;7.38;1.77;;;19.10;99.90;;;;;;4994886;28;20058;-68
2022/09/14 09:06:41;;;;;;;8.70;1.93;;;19.10;99.90;;;;;;4994192;28;20522;-67
2022/09/14 09:09:25;;;;;;;7.60;2.00;;;19.10;99.90;;;;;;4994330;28;20500;-67
2022/09/14 09:11:53;;;;;;;5.27;1.70;;;19.10;99.90;;;;;;4995210;28;20058;-67
2022/09/14 09:14:31;;;;;;;5.37;1.47;;;19.20;99.90;;;;;;4994362;28;20050;-67
2022/09/14 09:16:58;;;;;;;7.17;1.40;;;;;;;;;;4994963;28;20058;-67
2022/09/14 09:19:42;;;;;;;5.60;1.50;;;19.20;99.90;;;;;;4994233;28;20046;-67
2022/09/14 09:22:14;;;;;;;5.83;1.50;;;19.30;99.90;;;;;;4994279;28;20459;-67
2022/09/14 09:24:44;;;;;;;7.37;1.50;;;19.40;99.90;;;;;;4994098;28;20105;-67
2022/09/14 09:27:12;;;;;;;7.87;2.03;;;19.50;99.90;;;;;;4995048;28;20081;-68
2022/09/14 09:29:39;;;;;;;4.13;1.27;;;19.70;99.90;;;;;;4994189;28;20501;-67
2022/09/14 09:32:06;;;;;;;5.63;1.50;;;19.80;99.90;;;;;;4994075;28;20050;-68
2022/09/14 09:34:34;;;;;;;5.83;1.37;;;20.00;99.90;;;;;;4994213;28;20050;-68
2022/09/14 09:37:00;;;;;;;6.60;1.50;;;20.00;99.90;;;;;;4994079;28;20053;-68
2022/09/14 09:39:28;;;;;;;7.27;1.50;;;20.00;99.90;;;;;;4994013;28;20050;-68
2022/09/14 09:42:05;;;;;;;5.47;1.50;;;20.00;99.90;;;;;;4994089;28;20042;-68
2022/09/14 09:44:54;;;;;;;5.30;1.60;;;20.10;99.90;;;;;;4994552;28;20050;-68
2022/09/14 09:47:31;;;;;;;7.23;1.67;;;20.20;99.90;;;;;;4993939;28;20057;-68
2022/09/14 09:50:05;;;;;;;6.17;1.60;;;20.20;99.90;;;;;;4993318;28;20417;-68
2022/09/14 09:52:31;;;;;;;6.83;1.30;;;20.30;99.90;;;;;;4976513;28;20051;-68
2022/09/14 09:54:59;;;;;;;5.50;1.27;;;20.30;99.90;;;;;;4992660;28;20050;-68
2022/09/14 09:57:33;;;;;;;5.47;1.60;;;20.30;99.90;;;;;;4993844;28;20054;-68
2022/09/14 10:00:23;;;;;;;7.78;1.23;;;20.40;99.90;;;;;;4993853;28;20061;-68
2022/09/14 10:02:49;;;;;;;6.03;1.40;;;20.50;99.80;;;;;;4993818;28;20053;-68
2022/09/14 10:05:36;;;;;;;5.77;1.40;;;20.50;99.90;;;;;;4993725;28;20073;-68
2022/09/14 10:08:05;;;;;;;9.13;1.83;;;20.60;99.90;;;;;;4994115;28;20050;-69
2022/09/14 10:10:33;;;;;;;7.23;1.47;;;20.60;99.90;;;;;;4993799;28;20050;-68
2022/09/14 10:13:01;;;;;;;7.07;1.50;;;20.60;99.50;;;;;;4993792;28;20054;-69
2022/09/14 10:15:32;;;;;;;10.33;1.70;;;20.60;99.60;;;;;;4993769;28;20046;-68
2022/09/14 10:18:01;;;;;;;6.00;1.50;;;20.70;99.90;;;;;;4993771;28;20050;-67
2022/09/14 10:20:27;;;;;;;5.97;1.67;;;20.70;99.70;;;;;;4993650;28;20053;-67
2022/09/14 10:22:53;;;;;;;9.00;1.30;;;20.70;99.10;;;;;;4994238;28;20038;-67
2022/09/14 10:25:21;;;;;;;5.07;1.60;;;20.70;99.20;;;;;;4992361;28;20046;-68
2022/09/14 10:27:58;;;;;;;5.87;1.37;;;20.80;97.80;;;;;;4993586;28;20093;-68
2022/09/14 10:30:38;;;;;;;6.33;1.50;;;20.80;96.00;;;;;;4993238;28;20046;-67
2022/09/14 10:33:07;;;;;;;4.77;1.57;;;20.80;96.10;;;;;;4993766;28;20383;-68
2022/09/14 10:35:55;;;;;;;8.07;2.10;;;20.90;97.30;;;;;;4994234;28;20129;-68
2022/09/14 10:38:32;;;;;;;7.27;2.23;;;20.90;96.60;;;;;;4992241;28;20050;-68
2022/09/14 10:41:19;;;;;;;6.13;1.70;;;20.90;97.30;;;;;;4993546;28;20038;-68
2022/09/14 10:43:55;;;;;;;6.43;1.50;;;20.90;96.30;;;;;;4994409;28;20081;-68
2022/09/14 10:46:33;;;;;;;7.43;1.87;;;20.90;95.70;;;;;;4993673;28;20090;-68
2022/09/14 10:49:24;;;;;;;5.90;1.60;;;20.80;95.90;;;;;;4993665;28;20089;-67
2022/09/14 10:52:02;;;;;;;11.03;2.00;;;20.70;96.10;;;;;;4993392;28;20254;-68
2022/09/14 10:54:45;;;;;;;6.97;1.93;;;20.70;95.90;;;;;;4992458;28;20053;-68
2022/09/14 10:57:37;;;;;;;6.70;1.43;;;20.60;95.70;;;;;;4993948;28;20125;-68
2022/09/14 11:00:20;;;;;;;5.87;1.50;;;20.50;95.20;;;;;;4994219;28;20096;-68
2022/09/14 11:03:03;;;;;;;9.40;1.60;;;20.50;96.00;;;;;;4997034;28;20046;-68
2022/09/14 11:05:46;;;;;;;8.83;1.70;;;20.50;95.10;;;;;;4996526;28;20371;-68
2022/09/14 11:08:27;;;;;;;4.53;1.50;;;20.40;95.60;;;;;;4996911;28;20050;-68
2022/09/14 11:11:03;;;;;;;6.13;1.37;;;20.40;96.20;;;;;;4996673;28;20053;-67
2022/09/14 11:13:50;;;;;;;7.73;1.60;;;20.40;96.70;;;;;;4996713;28;20486;-67
2022/09/14 11:16:18;;;;;;;6.43;1.40;;;20.40;96.60;;;;;;4996727;28;20054;-67
2022/09/14 11:18:59;;;;;;;10.47;1.90;;;20.40;96.90;;;;;;4996642;28;20088;-68
2022/09/14 11:21:49;;;;;;;5.20;1.13;;;20.50;96.30;;;;;;4996600;28;20046;-68
2022/09/14 11:24:45;;;;;;;9.37;1.77;;;20.50;95.60;;;;;;4996562;28;20058;-68
2022/09/14 11:27:20;;;;;;;7.97;1.53;;;20.50;95.90;;;;;;4996802;28;20063;-68
2022/09/14 11:29:51;;;;;;;9.93;2.17;;;20.50;96.80;;;;;;4995286;28;20049;-67
2022/09/14 11:32:41;;;;;;;10.03;1.70;;;20.50;96.10;;;;;;4996891;28;20038;-68
2022/09/14 11:35:27;;;;;;;8.00;1.40;;;20.60;96.20;;;;;;4996548;28;20045;-67
2022/09/14 11:38:15;;;;;;;5.23;1.63;;;20.60;96.30;;;;;;4996233;28;20057;-68
2022/09/14 11:40:55;;;;;;;5.73;1.73;;;20.70;95.50;;;;;;4986778;28;20054;-67
2022/09/14 11:43:30;;;;;;;6.50;1.40;;;20.80;95.70;;;;;;4996176;28;20108;-68
2022/09/14 11:45:58;;;;;;;8.93;1.70;;;20.80;95.40;;;;;;4996077;28;20061;-67
2022/09/14 11:48:34;;;;;;;9.93;2.00;;;20.80;93.80;;;;;;4996757;28;20356;-67
2022/09/14 11:51:14;;;;;;;8.67;2.27;;;20.80;94.10;;;;;;4995982;28;20039;-67
2022/09/14 11:53:43;;;;;;;9.17;2.33;;;20.80;94.10;;;;;;4994932;28;20137;-67
2022/09/14 11:56:30;;;;;;;4.77;1.30;;;20.90;94.50;;;;;;4995826;28;20181;-67
2022/09/14 11:58:59;;;;;;;6.13;1.50;;;20.90;93.10;;;;;;4996632;28;20050;-67
2022/09/14 12:01:31;;;;;;;6.70;1.50;;;20.90;94.30;;;;;;4995734;28;20050;-68
2022/09/14 12:04:00;;;;;;;9.77;1.50;;;20.90;94.40;;;;;;4995758;28;20140;-67
2022/09/14 12:06:34;;;;;;;15.23;2.00;;;20.80;94.30;;;;;;4995635;28;20080;-67
2022/09/14 12:09:24;;;;;;;6.43;1.50;;;20.80;93.50;;;;;;4995638;28;20046;-67
2022/09/14 12:11:55;;;;;;;7.70;1.43;;;20.80;94.30;;;;;;4994926;28;20541;-67
2022/09/14 12:14:27;;;;;;;4.53;1.40;;;20.70;92.80;;;;;;4995178;28;20495;-67
2022/09/14 12:17:26;;;;;;;6.50;1.40;;;20.60;93.60;;;;;;4994533;28;20100;-67
2022/09/14 12:19:58;;;;;;;7.77;1.50;;;20.60;92.90;;;;;;4995056;28;20054;-67
2022/09/14 12:22:37;;;;;;;9.57;2.10;;;20.60;94.00;;;;;;4995750;28;20046;-68
2022/09/14 12:25:07;;;;;;;5.93;1.30;;;20.60;94.10;;;;;;4995153;28;20482;-67
2022/09/14 12:27:36;;;;;;;6.20;1.50;;;20.60;94.40;;;;;;4995373;28;20065;-67
2022/09/14 12:30:40;;;;;;;5.40;1.40;;;20.60;94.70;;;;;;4994893;28;20445;-67
2022/09/14 12:33:31;;;;;;;7.50;1.37;;;20.70;94.80;;;;;;4995087;28;20050;-67
2022/09/14 12:36:11;;;;;;;5.70;1.60;;;20.70;95.60;;;;;;4994936;28;20078;-67
2022/09/14 12:38:40;;;;;;;7.40;1.60;;;20.80;95.50;;;;;;4995616;28;20067;-67
2022/09/14 12:41:09;;;;;;;10.20;1.70;;;20.80;95.10;;;;;;4994765;28;20058;-67
2022/09/14 12:43:34;;;;;;;7.33;1.67;;;20.80;95.50;;;;;;4994942;28;20104;-67
2022/09/14 12:46:01;;;;;;;6.80;1.40;;;20.90;94.90;;;;;;4994886;28;20565;-67
2022/09/14 12:48:48;;;;;;;6.97;1.60;;;21.00;94.40;;;;;;4993502;28;20050;-69
2022/09/14 12:51:25;;;;;;;8.27;1.90;;;21.10;94.20;;;;;;4994962;28;20129;-67
2022/09/14 12:54:14;;;;;;;6.80;1.50;;;21.10;92.70;;;;;;4994428;28;20487;-67
2022/09/14 12:56:59;;;;;;;4.30;1.10;;;21.10;92.10;;;;;;4994948;28;20082;-67
2022/09/14 12:59:44;;;;;;;5.83;1.53;;;21.10;92.70;;;;;;4994709;28;20058;-67
2022/09/14 13:02:48;;;;;;;5.95;1.48;;;21.10;92.60;;;;;;4993623;28;20048;-67
2022/09/14 13:05:23;;;;;;;7.53;1.80;;;21.00;92.50;;;;;;4995165;28;20057;-67
2022/09/14 13:07:50;;;;;;;5.53;1.67;;;21.00;91.90;;;;;;4994575;28;20092;-67
2022/09/14 13:10:18;;;;;;;5.10;1.67;;;21.00;92.30;;;;;;4994588;28;20050;-67